createdAt,value
2018-04-13T00:01:06.595Z,98588.84
2018-04-13T00:03:32.548Z,98591.19
2018-04-13T00:05:58.490Z,98591.09
2018-04-13T00:08:24.418Z,98591.53
2018-04-13T00:10:50.359Z,98585.06
2018-04-13T00:13:16.304Z,98584.23
2018-04-13T00:15:42.243Z,98586.78
2018-04-13T00:18:08.184Z,98587.83
2018-04-13T00:20:34.258Z,98576.20
2018-04-13T00:23:00.190Z,98583.27
2018-04-13T00:25:26.145Z,98577.44
2018-04-13T00:27:52.069Z,98583.32
2018-04-13T00:30:18.013Z,98580.05
2018-04-13T00:32:43.956Z,98583.25
2018-04-13T00:35:09.930Z,98588.99
2018-04-13T00:37:35.857Z,98593.23
2018-04-13T00:40:01.805Z,98597.65
2018-04-13T00:42:27.753Z,98601.89
2018-04-13T00:44:53.715Z,98597.53
2018-04-13T00:47:19.657Z,98602.81
2018-04-13T00:49:45.609Z,98607.41
2018-04-13T00:52:11.556Z,98608.38
2018-04-13T00:54:37.513Z,98605.44
2018-04-13T00:57:03.470Z,98605.60
2018-04-13T00:59:29.429Z,98607.19
2018-04-13T01:01:55.411Z,98608.10
2018-04-13T01:04:21.348Z,98610.23
2018-04-13T01:06:47.296Z,98609.03
2018-04-13T01:09:13.253Z,98606.31
2018-04-13T01:11:39.241Z,98600.89
2018-04-13T01:14:05.193Z,98609.67
2018-04-13T01:16:31.145Z,98608.48
2018-04-13T01:18:57.125Z,98608.97
2018-04-13T01:21:23.089Z,98603.38
2018-04-13T01:23:49.036Z,98606.30
2018-04-13T01:26:14.977Z,98609.70
2018-04-13T01:28:40.931Z,98609.40
2018-04-13T01:31:06.901Z,98607.97
2018-04-13T01:33:32.844Z,98608.53
2018-04-13T01:35:58.789Z,98615.57
2018-04-13T01:38:24.751Z,98609.59
2018-04-13T01:40:50.713Z,98613.28
2018-04-13T01:43:16.672Z,98608.03
2018-04-13T01:45:42.607Z,98606.37
2018-04-13T01:48:08.565Z,98610.41
2018-04-13T01:50:34.503Z,98617.84
2018-04-13T01:53:00.472Z,98612.58
2018-04-13T01:55:26.443Z,98607.50
2018-04-13T01:57:52.399Z,98613.79
2018-04-13T02:00:18.333Z,98611.77
2018-04-13T02:02:44.284Z,98618.05
2018-04-13T02:05:10.218Z,98629.25
2018-04-13T02:07:36.168Z,98630.52
2018-04-13T02:10:02.142Z,98628.95
2018-04-13T02:12:28.094Z,98626.48
2018-04-13T02:14:54.024Z,98614.28
2018-04-13T02:17:19.975Z,98619.39
2018-04-13T02:19:45.938Z,98623.84
2018-04-13T02:22:11.890Z,98625.69
2018-04-13T02:24:37.833Z,98623.96
2018-04-13T02:27:03.795Z,98627.96
2018-04-13T02:29:29.736Z,98634.41
2018-04-13T02:31:55.703Z,98633.22
2018-04-13T02:34:21.744Z,98638.78
2018-04-13T02:36:47.689Z,98638.05
2018-04-13T02:39:13.614Z,98634.23
2018-04-13T02:41:39.553Z,98630.66
2018-04-13T02:44:05.488Z,98633.73
2018-04-13T02:46:31.445Z,98633.17
2018-04-13T02:48:57.407Z,98630.28
2018-04-13T02:51:23.364Z,98632.47
2018-04-13T02:53:49.342Z,98633.54
2018-04-13T02:56:15.301Z,98630.17
2018-04-13T02:58:41.287Z,98635.92
2018-04-13T03:01:07.249Z,98629.28
2018-04-13T03:03:33.180Z,98627.06
2018-04-13T03:05:59.130Z,98623.33
2018-04-13T03:08:25.121Z,98624.75
2018-04-13T03:10:51.076Z,98633.97
2018-04-13T03:13:17.029Z,98625.68
2018-04-13T03:15:42.965Z,98619.97
2018-04-13T03:18:08.907Z,98620.70
2018-04-13T03:20:34.868Z,98624.45
2018-04-13T03:23:00.817Z,98630.46
2018-04-13T03:25:26.780Z,98625.36
2018-04-13T03:27:52.723Z,98627.30
2018-04-13T03:30:19.703Z,98628.70
2018-04-13T03:32:45.649Z,98624.31
2018-04-13T03:35:11.595Z,98624.18
2018-04-13T03:37:37.597Z,98627.60
2018-04-13T03:40:03.560Z,98622.64
2018-04-13T03:42:29.516Z,98629.13
2018-04-13T03:44:55.502Z,98622.39
2018-04-13T03:47:21.466Z,98622.20
2018-04-13T03:49:47.399Z,98620.70
2018-04-13T03:52:13.354Z,98624.28
2018-04-13T03:54:39.317Z,98622.98
2018-04-13T03:57:05.275Z,98634.27
2018-04-13T03:59:31.238Z,98639.91
2018-04-13T04:01:57.201Z,98639.77
2018-04-13T04:04:23.147Z,98643.97
2018-04-13T04:06:49.096Z,98639.17
2018-04-13T04:09:15.043Z,98641.64
2018-04-13T04:11:40.967Z,98636.23
2018-04-13T04:14:06.942Z,98644.77
2018-04-13T04:16:32.978Z,98643.81
2018-04-13T04:18:59.014Z,98649.73
2018-04-13T04:21:24.979Z,98649.31
2018-04-13T04:23:50.976Z,98647.02
2018-04-13T04:26:16.999Z,98650.89
2018-04-13T04:28:43.029Z,98658.66
2018-04-13T04:31:09.021Z,98662.58
2018-04-13T04:33:34.977Z,98656.42
2018-04-13T04:36:00.968Z,98666.91
2018-04-13T04:38:26.936Z,98663.73
2018-04-13T04:40:52.940Z,98665.94
2018-04-13T04:43:19.060Z,98668.48
2018-04-13T04:45:44.993Z,98664.30
2018-04-13T04:48:10.945Z,98667.89
2018-04-13T04:50:36.952Z,98661.27
2018-04-13T04:53:02.962Z,98661.19
2018-04-13T04:55:28.941Z,98670.42
2018-04-13T04:57:54.933Z,98659.91
2018-04-13T05:00:20.910Z,98677.94
2018-04-13T05:02:46.930Z,98687.30
2018-04-13T05:05:12.888Z,98690.38
2018-04-13T05:07:38.838Z,98691.80
2018-04-13T05:10:05.046Z,98700.14
2018-04-13T05:12:31.049Z,98698.08
2018-04-13T05:14:57.029Z,98693.39
2018-04-13T05:17:22.961Z,98700.36
2018-04-13T05:19:48.903Z,98701.91
2018-04-13T05:22:14.863Z,98696.06
2018-04-13T05:24:40.819Z,98696.75
2018-04-13T05:27:06.815Z,98696.65
2018-04-13T05:29:32.795Z,98699.70
2018-04-13T05:31:58.737Z,98698.77
2018-04-13T05:34:24.670Z,98703.62
2018-04-13T05:36:50.620Z,98703.51
2018-04-13T05:39:16.597Z,98707.73
2018-04-13T05:41:42.533Z,98708.23
2018-04-13T05:44:08.483Z,98708.41
2018-04-13T05:46:34.440Z,98706.71
2018-04-13T05:49:00.394Z,98699.06
2018-04-13T05:51:26.366Z,98699.06
2018-04-13T05:53:52.340Z,98706.75
2018-04-13T05:56:18.287Z,98700.98
2018-04-13T05:58:44.222Z,98698.91
2018-04-13T06:01:10.169Z,98688.77
2018-04-13T06:03:36.118Z,98691.27
2018-04-13T06:06:02.113Z,98692.00
2018-04-13T06:08:28.073Z,98683.34
2018-04-13T06:10:54.033Z,98678.25
2018-04-13T06:13:19.990Z,98672.52
2018-04-13T06:15:45.975Z,98676.55
2018-04-13T06:18:11.917Z,98682.72
2018-04-13T06:20:37.885Z,98680.61
2018-04-13T06:23:03.841Z,98686.02
2018-04-13T06:25:29.779Z,98692.10
2018-04-13T06:27:56.810Z,98698.30
2018-04-13T06:30:22.763Z,98700.93
2018-04-13T06:32:48.709Z,98704.05
2018-04-13T06:35:14.665Z,98703.52
2018-04-13T06:37:40.651Z,98714.73
2018-04-13T06:40:06.606Z,98724.73
2018-04-13T06:42:32.533Z,98724.73
2018-04-13T06:44:58.492Z,98719.94
2018-04-13T06:47:24.458Z,98738.69
2018-04-13T06:49:50.459Z,98733.45
2018-04-13T06:52:16.404Z,98725.09
2018-04-13T06:54:42.339Z,98726.10
2018-04-13T06:57:08.288Z,98724.17
2018-04-13T06:59:34.235Z,98733.17
2018-04-13T07:02:00.200Z,98726.80
2018-04-13T07:04:26.156Z,98721.77
2018-04-13T07:06:53.184Z,98723.44
2018-04-13T07:09:19.112Z,98717.42
2018-04-13T07:11:45.038Z,98727.38
2018-04-13T07:14:10.973Z,98728.61
2018-04-13T07:16:36.904Z,98724.42
2018-04-13T07:19:02.876Z,98738.63
2018-04-13T07:21:28.843Z,98732.67
2018-04-13T07:23:55.156Z,98730.06
2018-04-13T07:26:21.104Z,98736.02
2018-04-13T07:28:47.043Z,98738.20
2018-04-13T07:31:12.997Z,98741.55
2018-04-13T07:33:39.485Z,98731.65
2018-04-13T07:36:04.927Z,98728.61
2018-04-13T07:38:30.890Z,98740.31
2018-04-13T07:40:56.823Z,98731.62
2018-04-13T07:43:22.769Z,98731.80
2018-04-13T07:45:48.741Z,98736.66
2018-04-13T07:48:14.702Z,98739.97
2018-04-13T07:50:40.649Z,98737.83
2018-04-13T07:53:06.584Z,98749.51
2018-04-13T07:55:32.543Z,98757.78
2018-04-13T07:57:58.492Z,98761.83
2018-04-13T08:00:24.439Z,98763.53
2018-04-13T08:02:50.903Z,98761.36
2018-04-13T08:05:16.452Z,98752.22
2018-04-13T08:07:42.396Z,98758.59
2018-04-13T08:10:08.328Z,98754.28
2018-04-13T08:12:34.284Z,98755.95
2018-04-13T08:15:00.682Z,98760.31
2018-04-13T08:17:26.216Z,98760.38
2018-04-13T08:19:52.118Z,98770.05
2018-04-13T08:22:18.056Z,98751.95
2018-04-13T08:24:44.006Z,98755.34
2018-04-13T08:27:09.952Z,98764.83
2018-04-13T08:29:35.912Z,98755.81
2018-04-13T08:32:01.850Z,98758.50
2018-04-13T08:34:27.822Z,98762.91
2018-04-13T08:36:53.749Z,98766.71
2018-04-13T08:39:19.682Z,98762.87
2018-04-13T08:41:45.635Z,98757.89
2018-04-13T08:44:11.592Z,98752.22
2018-04-13T08:46:37.572Z,98774.43
2018-04-13T08:49:03.705Z,98768.09
2018-04-13T08:51:29.486Z,98756.20
2018-04-13T08:53:55.413Z,98761.98
2018-04-13T08:56:21.360Z,98762.55
2018-04-13T08:58:47.352Z,98772.41
2018-04-13T09:01:13.308Z,98776.69
2018-04-13T09:03:39.257Z,98784.02
2018-04-13T09:06:05.199Z,98786.58
2018-04-13T09:08:31.156Z,98786.11
2018-04-13T09:10:57.106Z,98749.80
2018-04-13T09:13:23.059Z,98778.27
2018-04-13T09:15:49.026Z,98808.64
2018-04-13T09:18:14.975Z,98795.05
2018-04-13T09:20:40.970Z,98798.63
2018-04-13T09:23:06.911Z,98786.75
2018-04-13T09:25:32.867Z,98776.27
2018-04-13T09:27:58.826Z,98781.02
2018-04-13T09:30:24.806Z,98778.95
2018-04-13T09:32:50.770Z,98770.94
2018-04-13T09:35:16.710Z,98775.88
2018-04-13T09:37:42.674Z,98787.22
2018-04-13T09:40:08.616Z,98784.73
2018-04-13T09:42:34.578Z,98780.56
2018-04-13T09:45:00.505Z,98776.67
2018-04-13T09:47:26.470Z,98769.42
2018-04-13T09:49:52.414Z,98771.42
2018-04-13T09:52:18.332Z,98775.55
2018-04-13T09:54:44.292Z,98770.86
2018-04-13T09:57:10.265Z,98776.09
2018-04-13T09:59:36.211Z,98778.30
2018-04-13T10:02:02.148Z,98774.63
2018-04-13T10:04:28.077Z,98782.73
2018-04-13T10:06:54.031Z,98779.91
2018-04-13T10:09:19.960Z,98778.86
2018-04-13T10:11:45.902Z,98788.90
2018-04-13T10:14:11.843Z,98785.24
2018-04-13T10:16:37.801Z,98808.48
2018-04-13T10:19:03.751Z,98788.62
2018-04-13T10:21:29.693Z,98794.98
2018-04-13T10:23:55.671Z,98797.48
2018-04-13T10:26:21.649Z,98790.06
2018-04-13T10:28:47.590Z,98786.11
2018-04-13T10:31:13.541Z,98782.31
2018-04-13T10:33:39.481Z,98777.81
2018-04-13T10:36:05.412Z,98783.98
2018-04-13T10:38:31.357Z,98779.81
2018-04-13T10:40:57.303Z,98779.89
2018-04-13T10:43:23.248Z,98779.65
2018-04-13T10:45:49.212Z,98785.55
2018-04-13T10:48:15.147Z,98788.01
2018-04-13T10:50:41.089Z,98770.56
2018-04-13T10:53:07.040Z,98771.20
2018-04-13T10:55:32.992Z,98773.08
2018-04-13T10:57:58.969Z,98787.58
2018-04-13T11:00:24.895Z,98775.86
2018-04-13T11:02:50.859Z,98773.73
2018-04-13T11:05:16.808Z,98779.63
2018-04-13T11:07:42.757Z,98785.87
2018-04-13T11:10:08.691Z,98784.43
2018-04-13T11:12:34.641Z,98788.18
2018-04-13T11:15:00.592Z,98782.58
2018-04-13T11:17:26.551Z,98776.70
2018-04-13T11:19:52.506Z,98771.04
2018-04-13T11:22:18.462Z,98781.56
2018-04-13T11:24:44.430Z,98781.42
2018-04-13T11:27:10.376Z,98765.64
2018-04-13T11:29:36.302Z,98784.75
2018-04-13T11:32:02.228Z,98782.64
2018-04-13T11:34:28.180Z,98783.88
2018-04-13T11:36:54.131Z,98786.05
2018-04-13T11:39:20.099Z,98788.36
2018-04-13T11:41:46.061Z,98797.18
2018-04-13T11:44:12.021Z,98795.63
2018-04-13T11:46:37.970Z,98795.33
2018-04-13T11:49:03.950Z,98797.02
2018-04-13T11:51:29.892Z,98796.30
2018-04-13T11:53:55.829Z,98790.56
2018-04-13T11:56:21.779Z,98788.30
2018-04-13T11:58:47.742Z,98803.17
2018-04-13T12:01:13.669Z,98805.48
2018-04-13T12:03:39.637Z,98811.14
2018-04-13T12:06:05.631Z,98811.40
2018-04-13T12:08:31.574Z,98816.92
2018-04-13T12:10:57.535Z,98826.50
2018-04-13T12:13:23.466Z,98837.27
2018-04-13T12:15:49.395Z,98817.49
2018-04-13T12:18:15.340Z,98826.78
2018-04-13T12:20:41.277Z,98837.19
2018-04-13T12:23:07.205Z,98823.52
2018-04-13T12:25:33.174Z,98841.29
2018-04-13T12:27:59.112Z,98839.17
2018-04-13T12:30:25.058Z,98840.02
2018-04-13T12:32:50.997Z,98849.69
2018-04-13T12:35:16.913Z,98857.30
2018-04-13T12:37:42.858Z,98863.60
2018-04-13T12:40:08.797Z,98871.52
2018-04-13T12:42:34.756Z,98860.72
2018-04-13T12:45:01.049Z,98855.38
2018-04-13T12:47:26.991Z,98862.75
2018-04-13T12:49:52.918Z,98868.27
2018-04-13T12:52:18.871Z,98865.73
2018-04-13T12:54:45.001Z,98860.92
2018-04-13T12:57:10.802Z,98859.46
2018-04-13T12:59:36.742Z,98867.28
2018-04-13T13:02:02.697Z,98880.17
2018-04-13T13:04:28.658Z,98879.12
2018-04-13T13:06:54.596Z,98877.72
2018-04-13T13:09:20.638Z,98874.27
2018-04-13T13:11:46.568Z,98863.05
2018-04-13T13:14:12.505Z,98859.86
2018-04-13T13:16:38.480Z,98855.59
2018-04-13T13:19:04.423Z,98853.59
2018-04-13T13:21:30.380Z,98848.63
2018-04-13T13:23:56.313Z,98848.73
2018-04-13T13:26:22.290Z,98844.42
2018-04-13T13:28:48.236Z,98837.33
2018-04-13T13:31:15.238Z,98832.37
2018-04-13T13:33:41.203Z,98832.59
2018-04-13T13:36:07.135Z,98831.54
2018-04-13T13:38:33.102Z,98833.17
2018-04-13T13:40:59.067Z,98833.88
2018-04-13T13:43:24.990Z,98828.41
2018-04-13T13:45:50.916Z,98832.84
2018-04-13T13:48:16.918Z,98838.45
2018-04-13T13:50:42.853Z,98841.98
2018-04-13T13:53:08.790Z,98835.98
2018-04-13T13:55:34.747Z,98829.58
2018-04-13T13:58:00.696Z,98835.98
2018-04-13T14:00:26.634Z,98831.28
2018-04-13T14:02:52.602Z,98841.80
2018-04-13T14:05:18.562Z,98847.24
2018-04-13T14:07:44.522Z,98853.64
2018-04-13T14:10:10.469Z,98841.13
2018-04-13T14:12:36.432Z,98839.80
2018-04-13T14:15:02.389Z,98844.34
2018-04-13T14:17:28.362Z,98849.67
2018-04-13T14:19:54.334Z,98853.14
2018-04-13T14:22:20.291Z,98851.80
2018-04-13T14:24:46.262Z,98854.28
2018-04-13T14:27:12.218Z,98859.40
2018-04-13T14:29:38.154Z,98861.87
2018-04-13T14:32:04.108Z,98855.27
2018-04-13T14:34:30.085Z,98849.00
2018-04-13T14:36:56.051Z,98859.41
2018-04-13T14:39:21.978Z,98849.13
2018-04-13T14:41:47.909Z,98854.73
2018-04-13T14:44:13.850Z,98860.13
2018-04-13T14:46:39.829Z,98865.23
2018-04-13T14:49:05.773Z,98873.59
2018-04-13T14:51:31.703Z,98878.69
2018-04-13T14:53:57.626Z,98884.73
2018-04-13T14:56:23.579Z,98889.22
2018-04-13T14:58:50.298Z,98890.98
2018-04-13T15:01:16.235Z,98905.78
2018-04-13T15:03:42.217Z,98899.75
2018-04-13T15:06:08.154Z,98901.02
2018-04-13T15:08:34.106Z,98902.00
2018-04-13T15:11:00.060Z,98902.16
2018-04-13T15:13:26.026Z,98905.02
2018-04-13T15:15:52.012Z,98917.58
2018-04-13T15:18:17.965Z,98915.91
2018-04-13T15:20:43.920Z,98904.82
2018-04-13T15:23:09.869Z,98898.36
2018-04-13T15:25:35.794Z,98901.53
2018-04-13T15:28:01.774Z,98904.16
2018-04-13T15:30:27.714Z,98907.02
2018-04-13T15:32:53.679Z,98918.63
2018-04-13T15:35:19.640Z,98920.20
2018-04-13T15:37:45.650Z,98923.01
2018-04-13T15:40:11.776Z,98922.16
2018-04-13T15:42:41.608Z,98921.56
2018-04-13T15:45:07.572Z,98921.46
2018-04-13T15:47:33.541Z,98943.71
2018-04-13T15:49:59.528Z,98966.08
2018-04-13T15:52:25.521Z,98959.04
2018-04-13T15:54:51.461Z,98967.78
2018-04-13T15:57:17.436Z,98961.69
2018-04-13T15:59:43.476Z,98957.90
2018-04-13T16:02:09.456Z,98974.32
2018-04-13T16:04:35.503Z,99002.91
2018-04-13T16:07:01.465Z,99016.20
2018-04-13T16:09:27.535Z,99023.92
2018-04-13T16:11:53.544Z,99015.84
2018-04-13T16:14:19.531Z,99025.03
2018-04-13T16:16:47.277Z,99042.11
2018-04-13T16:19:13.317Z,99038.02
2018-04-13T16:21:39.432Z,99050.81
2018-04-13T16:24:05.395Z,99057.38
2018-04-13T16:26:31.467Z,99059.41
2018-04-13T16:28:57.582Z,99056.73
2018-04-13T16:31:23.576Z,99061.64
2018-04-13T16:33:49.586Z,99061.73
2018-04-13T16:36:15.553Z,99049.28
2018-04-13T16:38:41.507Z,99057.44
2018-04-13T16:41:07.453Z,99058.45
2018-04-13T16:43:33.404Z,99064.88
2018-04-13T16:45:59.354Z,99057.16
2018-04-13T16:48:25.316Z,99059.83
2018-04-13T16:50:51.299Z,99056.45
2018-04-13T16:53:17.241Z,99044.53
2018-04-13T16:55:43.187Z,99045.53
2018-04-13T16:58:09.128Z,99058.08
2018-04-13T17:00:35.102Z,99045.75
2018-04-13T17:03:01.441Z,99046.00
2018-04-13T17:05:27.409Z,99055.10
2018-04-13T17:07:53.348Z,99057.95
2018-04-13T17:10:19.485Z,99052.22
2018-04-13T17:12:45.425Z,99049.09
2018-04-13T17:15:11.440Z,99058.30
2018-04-13T17:17:37.390Z,99062.77
2018-04-13T17:20:03.607Z,99071.97
2018-04-13T17:22:29.577Z,99069.44
2018-04-13T17:24:55.583Z,99069.09
2018-04-13T17:27:21.549Z,99072.00
2018-04-13T17:29:47.492Z,99076.16
2018-04-13T17:32:13.471Z,99086.94
2018-04-13T17:34:39.810Z,99088.50
2018-04-13T17:37:05.750Z,99111.52
2018-04-13T17:39:31.706Z,99114.28
2018-04-13T17:41:57.699Z,99131.95
2018-04-13T17:44:23.667Z,99131.22
2018-04-13T17:46:49.645Z,99135.61
2018-04-13T17:49:15.618Z,99142.11
2018-04-13T17:51:50.368Z,99128.53
2018-04-13T17:54:16.481Z,99134.88
2018-04-13T17:56:42.479Z,99120.79
2018-04-13T17:59:11.690Z,99127.11
2018-04-13T18:04:16.231Z,99121.72
2018-04-13T18:09:21.043Z,99132.02
2018-04-13T18:11:47.104Z,99123.26
2018-04-13T18:14:13.072Z,99124.91
2018-04-13T18:16:39.045Z,99133.72
2018-04-13T18:19:05.033Z,99137.03
2018-04-13T18:21:31.284Z,99140.08
2018-04-13T18:23:58.139Z,99024.14
2018-04-13T18:26:24.116Z,99151.45
2018-04-13T18:28:50.123Z,99158.97
2018-04-13T18:31:16.760Z,99174.98
2018-04-13T18:33:45.128Z,99173.32
2018-04-13T18:36:16.435Z,99190.26
2018-04-13T18:41:24.544Z,99208.88
2018-04-13T18:43:50.573Z,99214.13
2018-04-13T18:46:16.600Z,99251.17
2018-04-13T18:48:42.574Z,99251.64
2018-04-13T18:51:08.565Z,99254.32
2018-04-13T18:53:34.595Z,99249.27
2018-04-13T18:56:00.561Z,99256.44
2018-04-13T18:58:26.571Z,99256.63
2018-04-13T19:00:52.564Z,99265.76
2018-04-13T19:03:18.530Z,99266.67
2018-04-13T19:05:44.530Z,99265.45
2018-04-13T19:08:10.507Z,99272.11
2018-04-13T19:10:36.467Z,99281.33
2018-04-13T19:13:02.425Z,99280.55
2018-04-13T19:15:28.399Z,99280.27
2018-04-13T19:17:54.404Z,99276.06
2018-04-13T19:20:20.397Z,99273.34
2018-04-13T19:22:46.532Z,99273.84
2018-04-13T19:25:12.585Z,99272.06
2018-04-13T19:27:38.597Z,99269.88
2018-04-13T19:30:04.587Z,99278.13
2018-04-13T19:32:30.526Z,99286.52
2018-04-13T19:34:56.510Z,99292.42
2018-04-13T19:37:22.489Z,99284.87
2018-04-13T19:39:48.544Z,99297.59
2018-04-13T19:42:14.547Z,99304.70
2018-04-13T19:44:40.603Z,99299.42
2018-04-13T19:47:06.582Z,99301.30
2018-04-13T19:49:33.603Z,99297.56
2018-04-13T19:51:59.557Z,99303.52
2018-04-13T19:54:25.515Z,99302.67
2018-04-13T19:56:51.486Z,99301.06
2018-04-13T19:59:17.456Z,99307.69
2018-04-13T20:01:43.426Z,99306.06
2018-04-13T20:04:09.370Z,99309.28
2018-04-13T20:06:35.324Z,99308.11
2018-04-13T20:09:01.283Z,99305.70
2018-04-13T20:11:27.240Z,99310.69
2018-04-13T20:13:53.167Z,99305.28
2018-04-13T20:16:19.142Z,99304.98
2018-04-13T20:18:45.092Z,99308.34
2018-04-13T20:21:11.083Z,99309.71
2018-04-13T20:23:37.032Z,99309.35
2018-04-13T20:26:02.983Z,99306.64
2018-04-13T20:28:28.940Z,99311.69
2018-04-13T20:30:55.013Z,99315.08
2018-04-13T20:33:21.098Z,99316.81
2018-04-13T20:35:47.068Z,99320.33
2018-04-13T20:38:15.018Z,99325.80
2018-04-13T20:43:12.370Z,99332.27
2018-04-13T20:45:38.350Z,99335.88
2018-04-13T20:48:05.731Z,99343.98
2018-04-13T20:50:31.719Z,99338.55
2018-04-13T20:52:57.681Z,99345.64
2018-04-13T20:55:24.130Z,99355.56
2018-04-13T20:57:50.104Z,99356.19
2018-04-13T21:00:16.062Z,99359.94
2018-04-13T21:02:42.028Z,99362.95
2018-04-13T21:05:07.981Z,99372.12
2018-04-13T21:07:34.098Z,99380.05
2018-04-13T21:10:00.042Z,99381.02
2018-04-13T21:12:26.001Z,99373.42
2018-04-13T21:14:51.935Z,99386.53
2018-04-13T21:17:17.895Z,99382.72
2018-04-13T21:19:43.856Z,99387.41
2018-04-13T21:22:09.820Z,99395.00
2018-04-13T21:24:35.782Z,99392.53
2018-04-13T21:27:01.762Z,99396.00
2018-04-13T21:29:27.731Z,99395.50
2018-04-13T21:31:53.713Z,99396.30
2018-04-13T21:34:19.731Z,99401.50
2018-04-13T21:36:45.691Z,99407.36
2018-04-13T21:39:11.735Z,99406.99
2018-04-13T21:41:37.655Z,99402.90
2018-04-13T21:44:03.662Z,99411.67
2018-04-13T21:46:29.738Z,99413.34
2018-04-13T21:48:55.691Z,99415.11
2018-04-13T21:51:21.636Z,99421.00
2018-04-13T21:53:47.650Z,99425.70
2018-04-13T21:56:13.644Z,99429.58
2018-04-13T21:58:39.619Z,99432.05
2018-04-13T22:01:05.642Z,99435.42
2018-04-13T22:03:31.629Z,99440.48
2018-04-13T22:05:57.597Z,99440.58
2018-04-13T22:08:23.559Z,99451.52
2018-04-13T22:10:49.525Z,99447.74
2018-04-13T22:13:15.496Z,99449.08
2018-04-13T22:15:41.472Z,99445.50
2018-04-13T22:18:07.455Z,99454.25
2018-04-13T22:20:33.456Z,99456.34
2018-04-13T22:22:59.460Z,99459.25
2018-04-13T22:25:25.429Z,99460.17
2018-04-13T22:27:51.369Z,99465.32
2018-04-13T22:30:17.311Z,99472.55
2018-04-13T22:32:43.303Z,99472.11
2018-04-13T22:35:09.272Z,99479.97
2018-04-13T22:37:35.226Z,99484.44
2018-04-13T22:40:01.162Z,99483.74
2018-04-13T22:42:27.127Z,99487.03
2018-04-13T22:44:53.117Z,99491.23
2018-04-13T22:47:19.059Z,99493.24
2018-04-13T22:49:45.051Z,99496.31
2018-04-13T22:52:11.009Z,99493.47
2018-04-13T22:54:36.967Z,99505.64
2018-04-13T22:57:02.980Z,99502.88
2018-04-13T22:59:28.944Z,99508.27
2018-04-13T23:01:54.903Z,99473.88
2018-04-13T23:04:20.852Z,99518.97
2018-04-13T23:06:46.800Z,99511.75
2018-04-13T23:09:12.806Z,99516.73
2018-04-13T23:11:38.771Z,99518.88
2018-04-13T23:14:04.717Z,99516.00
2018-04-13T23:16:30.721Z,99526.97
2018-04-13T23:18:56.679Z,99514.35
2018-04-13T23:21:22.642Z,99519.53
2018-04-13T23:23:48.578Z,99511.16
2018-04-13T23:26:14.567Z,99520.80
2018-04-13T23:28:40.535Z,99525.01
2018-04-13T23:31:06.500Z,99526.00
2018-04-13T23:33:32.456Z,99526.34
2018-04-13T23:35:58.394Z,99528.46
2018-04-13T23:38:24.350Z,99527.62
2018-04-13T23:40:50.313Z,99531.50
2018-04-13T23:43:16.269Z,99535.21
2018-04-13T23:45:42.261Z,99531.41
2018-04-13T23:48:08.214Z,99524.76
2018-04-13T23:50:34.174Z,99529.48
2018-04-13T23:53:00.143Z,99521.59
2018-04-13T23:55:26.106Z,99529.55
2018-04-13T23:57:52.097Z,99534.36
